createdAt,value
2018-11-01T03:13:39.750Z,998.75
2018-11-01T03:14:39.716Z,998.80
2018-11-01T03:15:39.708Z,998.82
2018-11-01T03:16:39.690Z,998.89
2018-11-01T03:17:39.680Z,998.86
2018-11-01T03:18:39.671Z,998.87
2018-11-01T03:19:39.681Z,998.89
2018-11-01T03:20:39.645Z,998.91
2018-11-01T03:21:39.668Z,998.92
2018-11-01T03:22:39.635Z,998.93
2018-11-01T03:23:39.620Z,998.93
2018-11-01T03:24:39.612Z,998.97
2018-11-01T03:25:39.598Z,999.01
2018-11-01T03:26:39.772Z,999.05
2018-11-01T03:27:39.577Z,999.10
2018-11-01T03:28:39.579Z,999.13
2018-11-01T03:29:39.560Z,999.08
2018-11-01T03:30:39.555Z,999.10
2018-11-01T03:31:39.542Z,999.09
2018-11-01T03:32:39.529Z,999.14
2018-11-01T03:33:39.530Z,999.16
2018-11-01T03:34:39.528Z,999.17
2018-11-01T03:35:39.529Z,999.14
2018-11-01T03:36:39.503Z,999.15
2018-11-01T03:37:39.499Z,999.15
2018-11-01T03:38:39.557Z,999.11
2018-11-01T03:39:39.483Z,999.09
2018-11-01T03:40:39.465Z,999.09
2018-11-01T03:41:39.460Z,999.11
2018-11-01T03:42:39.453Z,999.10
2018-11-01T03:43:39.454Z,999.02
2018-11-01T03:44:39.438Z,998.99
2018-11-01T03:45:39.528Z,998.95
2018-11-01T03:46:39.429Z,998.90
2018-11-01T03:47:39.411Z,998.87
2018-11-01T03:48:39.409Z,998.89
2018-11-01T03:49:39.406Z,998.90
2018-11-01T03:50:39.392Z,998.87
2018-11-01T03:51:39.379Z,998.88
2018-11-01T03:52:39.365Z,998.85
2018-11-01T03:53:39.459Z,998.82
2018-11-01T03:56:00.367Z,998.77
2018-11-01T03:57:00.362Z,998.71
2018-11-01T03:58:00.398Z,998.74
2018-11-01T03:59:00.337Z,998.71
2018-11-01T04:00:00.318Z,998.71
2018-11-01T04:01:00.312Z,998.71
2018-11-01T04:03:21.361Z,998.71
2018-11-01T04:04:21.306Z,998.70
2018-11-01T04:05:21.297Z,998.72
2018-11-01T04:06:21.282Z,998.70
2018-11-01T04:07:21.277Z,998.63
2018-11-01T04:08:21.281Z,998.60
2018-11-01T04:09:21.259Z,998.56
2018-11-01T04:10:21.297Z,998.55
2018-11-01T04:11:21.253Z,998.54
2018-11-01T04:12:21.234Z,998.49
2018-11-01T04:13:21.232Z,998.48
2018-11-01T04:14:21.223Z,998.51
2018-11-01T04:15:21.290Z,998.46
2018-11-01T04:16:21.227Z,998.47
2018-11-01T04:17:21.191Z,998.46
2018-11-01T04:18:21.197Z,998.49
2018-11-01T04:19:21.176Z,998.49
2018-11-01T04:20:21.167Z,998.51
2018-11-01T04:21:21.158Z,998.55
2018-11-01T04:22:21.150Z,998.55
2018-11-01T04:23:21.228Z,998.61
2018-11-01T04:24:21.129Z,998.60
2018-11-01T04:25:21.138Z,998.57
2018-11-01T04:26:21.118Z,998.55
2018-11-01T04:27:21.104Z,998.54
2018-11-01T04:28:21.101Z,998.56
2018-11-01T04:29:21.097Z,998.59
2018-11-01T04:30:21.078Z,998.60
2018-11-01T04:31:21.070Z,998.64
2018-11-01T04:32:21.066Z,998.67
2018-11-01T04:33:21.171Z,998.71
2018-11-01T04:34:21.050Z,998.73
2018-11-01T04:35:21.134Z,998.78
2018-11-01T04:36:21.098Z,998.82
2018-11-01T04:37:21.020Z,998.79
2018-11-01T04:38:21.017Z,998.81
2018-11-01T04:39:21.014Z,998.84
2018-11-01T04:40:21.049Z,998.86
2018-11-01T04:41:20.989Z,998.89
2018-11-01T04:42:20.989Z,998.90
2018-11-01T04:43:20.976Z,998.84
2018-11-01T04:44:20.989Z,998.83
2018-11-01T04:45:20.954Z,998.83
2018-11-01T04:46:20.988Z,998.83
2018-11-01T04:47:20.974Z,998.80
2018-11-01T04:48:20.937Z,998.83
2018-11-01T04:49:20.924Z,998.74
2018-11-01T04:50:20.917Z,998.72
2018-11-01T04:51:20.906Z,998.67
2018-11-01T04:52:20.899Z,998.61
2018-11-01T04:53:20.898Z,998.65
2018-11-01T04:54:20.889Z,998.63
2018-11-01T04:55:20.878Z,998.63
2018-11-01T04:56:20.873Z,998.60
2018-11-01T04:57:20.859Z,998.57
2018-11-01T04:58:20.849Z,998.53
2018-11-01T04:59:20.845Z,998.51
2018-11-01T05:00:20.841Z,998.51
2018-11-01T05:01:20.824Z,998.50
2018-11-01T05:02:20.824Z,998.50
2018-11-01T05:03:20.820Z,998.47
2018-11-01T05:04:20.801Z,998.40
2018-11-01T05:05:20.791Z,998.36
2018-11-01T05:06:20.792Z,998.29
2018-11-01T05:07:20.783Z,998.23
2018-11-01T05:08:20.766Z,998.25
2018-11-01T05:09:20.755Z,998.27
2018-11-01T05:10:20.754Z,998.31
2018-11-01T05:11:20.742Z,998.41
2018-11-01T05:12:20.728Z,998.39
2018-11-01T05:13:20.729Z,998.41
2018-11-01T05:14:20.718Z,998.40
2018-11-01T05:15:20.736Z,998.45
2018-11-01T05:16:20.698Z,998.43
2018-11-01T05:17:20.691Z,998.44
2018-11-01T05:18:20.682Z,998.44
2018-11-01T05:19:20.673Z,998.45
2018-11-01T05:20:20.694Z,998.46
2018-11-01T05:21:20.655Z,998.47
2018-11-01T05:22:20.648Z,998.46
2018-11-01T05:23:20.636Z,998.45
2018-11-01T05:24:20.635Z,998.52
2018-11-01T05:25:20.625Z,998.51
2018-11-01T05:26:20.616Z,998.51
2018-11-01T05:27:20.610Z,998.52
2018-11-01T05:28:20.595Z,998.57
2018-11-01T05:29:20.653Z,998.60
2018-11-01T05:30:20.578Z,998.67
2018-11-01T05:31:20.573Z,998.60
2018-11-01T05:32:20.562Z,998.60
2018-11-01T05:33:20.558Z,998.55
2018-11-01T05:34:20.553Z,998.53
2018-11-01T05:35:20.542Z,998.56
2018-11-01T05:36:20.538Z,998.62
2018-11-01T05:37:20.523Z,998.66
2018-11-01T05:38:20.514Z,998.65
2018-11-01T05:39:20.505Z,998.66
2018-11-01T05:40:20.508Z,998.65
2018-11-01T05:41:20.490Z,998.64
2018-11-01T05:42:20.480Z,998.59
2018-11-01T05:43:20.468Z,998.58
2018-11-01T05:44:20.466Z,998.56
2018-11-01T05:45:20.452Z,998.48
2018-11-01T05:46:20.452Z,998.43
2018-11-01T05:47:20.434Z,998.39
2018-11-01T05:48:20.441Z,998.37
2018-11-01T05:49:20.422Z,998.33
2018-11-01T05:50:20.407Z,998.30
2018-11-01T05:51:20.401Z,998.29
2018-11-01T05:52:20.402Z,998.27
2018-11-01T05:53:20.388Z,998.35
2018-11-01T05:54:20.376Z,998.36
2018-11-01T05:55:20.376Z,998.39
2018-11-01T05:56:20.361Z,998.39
2018-11-01T05:57:20.361Z,998.42
2018-11-01T05:58:20.340Z,998.48
2018-11-01T05:59:20.335Z,998.53
2018-11-01T06:00:20.338Z,998.59
2018-11-01T06:01:20.330Z,998.61
2018-11-01T06:02:20.309Z,998.65
2018-11-01T06:03:20.312Z,998.59
2018-11-01T06:04:20.305Z,998.55
2018-11-01T06:05:20.287Z,998.54
2018-11-01T06:06:20.296Z,998.56
2018-11-01T06:07:20.274Z,998.57
2018-11-01T06:08:20.295Z,998.58
2018-11-01T06:09:20.256Z,998.60
2018-11-01T06:10:20.246Z,998.64
2018-11-01T06:11:20.237Z,998.71
2018-11-01T06:12:20.285Z,998.77
2018-11-01T06:13:20.221Z,998.77
2018-11-01T06:14:20.216Z,998.79
2018-11-01T06:15:20.225Z,998.78
2018-11-01T06:16:20.212Z,998.81
2018-11-01T06:17:20.190Z,998.83
2018-11-01T06:18:20.178Z,998.93
2018-11-01T06:19:20.174Z,998.96
2018-11-01T06:20:20.203Z,998.94
2018-11-01T06:21:20.156Z,998.88
2018-11-01T06:22:20.162Z,998.84
2018-11-01T06:23:20.155Z,998.77
2018-11-01T06:24:20.130Z,998.71
2018-11-01T06:25:20.127Z,998.70
2018-11-01T06:26:20.113Z,998.66
2018-11-01T06:27:20.113Z,998.65
2018-11-01T06:28:20.099Z,998.72
2018-11-01T06:29:20.085Z,998.74
2018-11-01T06:30:20.157Z,998.78
2018-11-01T06:31:20.066Z,998.82
2018-11-01T06:32:20.067Z,998.82
2018-11-01T06:33:20.089Z,998.81
2018-11-01T06:34:20.044Z,998.83
2018-11-01T06:35:20.047Z,998.82
2018-11-01T06:36:20.024Z,998.79
2018-11-01T06:37:20.035Z,998.75
2018-11-01T06:38:20.009Z,998.73
2018-11-01T06:39:20.017Z,998.71
2018-11-01T06:40:19.993Z,998.70
2018-11-01T06:41:19.985Z,998.69
2018-11-01T06:42:19.974Z,998.68
2018-11-01T06:43:19.967Z,998.64
2018-11-01T06:44:27.628Z,998.67
2018-11-01T06:46:22.419Z,998.63
2018-11-01T06:47:13.350Z,998.62
2018-11-01T06:48:13.341Z,998.56
2018-11-01T06:49:13.327Z,998.60
2018-11-01T06:50:13.325Z,998.61
2018-11-01T06:51:13.302Z,998.67
2018-11-01T06:52:13.358Z,998.63
2018-11-01T06:53:13.298Z,998.61
2018-11-01T06:54:13.279Z,998.63
2018-11-01T06:55:13.279Z,998.60
2018-11-01T06:56:13.292Z,998.56
2018-11-01T06:57:13.256Z,998.49
2018-11-01T06:58:13.321Z,998.46
2018-11-01T06:59:13.442Z,998.50
2018-11-01T07:00:13.251Z,998.49
2018-11-01T07:01:13.228Z,998.48
2018-11-01T07:02:21.858Z,998.45
2018-11-01T07:04:06.649Z,998.41
2018-11-01T07:05:06.633Z,998.44
2018-11-01T07:06:06.643Z,998.43
2018-11-01T07:07:06.624Z,998.44
2018-11-01T07:08:06.604Z,998.46
2018-11-01T07:09:06.601Z,998.53
2018-11-01T07:10:06.604Z,998.59
2018-11-01T07:11:06.580Z,998.65
2018-11-01T07:12:06.573Z,998.68
2018-11-01T07:13:06.565Z,998.69
2018-11-01T07:14:06.552Z,998.74
2018-11-01T07:15:06.559Z,998.71
2018-11-01T07:16:06.541Z,998.72
2018-11-01T07:17:06.616Z,998.71
2018-11-01T07:18:06.526Z,998.73
2018-11-01T07:19:06.513Z,998.73
2018-11-01T07:20:06.508Z,998.76
2018-11-01T07:21:06.516Z,998.82
2018-11-01T07:22:06.487Z,998.84
2018-11-01T07:23:06.477Z,998.82
2018-11-01T07:24:06.471Z,998.79
2018-11-01T07:25:06.493Z,998.78
2018-11-01T07:26:06.508Z,998.76
2018-11-01T07:27:06.451Z,998.78
2018-11-01T07:28:06.472Z,998.82
2018-11-01T07:29:06.431Z,998.82
2018-11-01T07:30:06.438Z,998.81
2018-11-01T07:31:06.417Z,998.77
2018-11-01T07:32:06.407Z,998.72
2018-11-01T07:33:06.401Z,998.70
2018-11-01T07:34:06.392Z,998.69
2018-11-01T07:35:06.386Z,998.72
2018-11-01T07:36:06.379Z,998.75
2018-11-01T07:37:06.367Z,998.74
2018-11-01T07:38:06.364Z,998.72
2018-11-01T07:39:06.354Z,998.71
2018-11-01T07:40:06.462Z,998.68
2018-11-01T07:41:06.362Z,998.66
2018-11-01T07:42:06.319Z,998.68
2018-11-01T07:43:06.322Z,998.67
2018-11-01T07:44:06.310Z,998.66
2018-11-01T07:45:06.305Z,998.65
2018-11-01T07:46:06.290Z,998.66
2018-11-01T07:47:06.303Z,998.66
2018-11-01T07:48:06.292Z,998.66
2018-11-01T07:49:06.271Z,998.69
2018-11-01T07:50:06.266Z,998.72
2018-11-01T07:51:06.255Z,998.73
2018-11-01T07:52:06.269Z,998.76
2018-11-01T07:53:06.239Z,998.80
2018-11-01T07:54:06.235Z,998.83
2018-11-01T07:55:06.236Z,998.84
2018-11-01T07:56:06.210Z,998.80
2018-11-01T07:57:06.199Z,998.86
2018-11-01T07:58:06.192Z,998.89
2018-11-01T07:59:06.213Z,998.88
2018-11-01T08:00:06.194Z,998.93
2018-11-01T08:01:06.202Z,998.92
2018-11-01T08:02:06.181Z,998.93
2018-11-01T08:03:06.155Z,998.98
2018-11-01T08:04:06.148Z,998.99
2018-11-01T08:05:06.143Z,999.01
2018-11-01T08:06:06.153Z,999.03
2018-11-01T08:07:06.138Z,999.01
2018-11-01T08:08:06.120Z,999.00
2018-11-01T08:09:06.108Z,999.03
2018-11-01T08:10:06.104Z,999.05
2018-11-01T08:11:06.095Z,999.05
2018-11-01T08:12:06.078Z,999.03
2018-11-01T08:13:06.079Z,999.05
2018-11-01T08:14:06.071Z,999.08
2018-11-01T08:15:06.066Z,999.15
2018-11-01T08:16:06.052Z,999.14
2018-11-01T08:17:06.042Z,999.16
2018-11-01T08:18:06.049Z,999.15
2018-11-01T08:19:06.037Z,999.20
2018-11-01T08:20:06.243Z,999.21
2018-11-01T08:21:06.208Z,999.23
2018-11-01T08:22:06.007Z,999.29
2018-11-01T08:23:05.992Z,999.33
2018-11-01T08:24:06.004Z,999.41
2018-11-01T08:25:05.979Z,999.47
2018-11-01T08:26:05.972Z,999.58
2018-11-01T08:27:05.975Z,999.61
2018-11-01T08:28:06.097Z,999.66
2018-11-01T08:29:05.967Z,999.61
2018-11-01T08:30:05.935Z,999.57
2018-11-01T08:31:05.947Z,999.48
2018-11-01T08:32:05.923Z,999.47
2018-11-01T08:33:05.921Z,999.48
2018-11-01T08:34:05.912Z,999.48
2018-11-01T08:35:05.898Z,999.47
2018-11-01T08:36:05.893Z,999.38
2018-11-01T08:37:05.886Z,999.42
2018-11-01T08:38:05.875Z,999.41
2018-11-01T08:39:05.920Z,999.41
2018-11-01T08:40:05.875Z,999.42
2018-11-01T08:41:05.859Z,999.46
2018-11-01T08:42:05.942Z,999.50
2018-11-01T08:43:05.855Z,999.47
2018-11-01T08:44:05.831Z,999.47
2018-11-01T08:45:05.872Z,999.47
2018-11-01T08:46:05.817Z,999.56
2018-11-01T08:47:05.812Z,999.64
2018-11-01T08:48:05.809Z,999.70
2018-11-01T08:49:05.795Z,999.74
2018-11-01T08:50:05.797Z,999.78
2018-11-01T08:51:05.780Z,999.90
2018-11-01T08:52:05.767Z,1000.00
2018-11-01T08:53:05.764Z,1000.03
2018-11-01T08:54:05.757Z,1000.04
2018-11-01T08:55:05.760Z,1000.06
2018-11-01T08:56:05.733Z,1000.07
2018-11-01T08:57:05.753Z,1000.06
2018-11-01T08:58:05.756Z,1000.05
2018-11-01T08:59:05.715Z,1000.11
2018-11-01T09:00:05.707Z,1000.00
2018-11-01T09:01:05.708Z,999.90
2018-11-01T09:02:05.701Z,999.86
2018-11-01T09:03:05.695Z,999.87
2018-11-01T09:04:05.685Z,999.88
2018-11-01T09:05:05.691Z,999.92
2018-11-01T09:06:05.671Z,1000.05
2018-11-01T09:07:05.656Z,1000.03
2018-11-01T09:08:05.834Z,1000.02
2018-11-01T09:09:05.641Z,999.98
2018-11-01T09:10:05.633Z,999.95
2018-11-01T09:11:05.631Z,999.88
2018-11-01T09:12:05.645Z,999.87
2018-11-01T09:13:05.671Z,999.98
2018-11-01T09:14:05.644Z,1000.14
2018-11-01T09:15:05.610Z,1000.31
2018-11-01T09:16:05.597Z,1000.43
2018-11-01T09:17:05.585Z,1000.44
2018-11-01T09:18:05.606Z,1000.38
2018-11-01T09:19:05.594Z,1000.32
2018-11-01T09:20:05.564Z,1000.22
2018-11-01T09:21:05.556Z,1000.11
2018-11-01T09:22:05.546Z,1000.05
2018-11-01T09:23:05.540Z,999.95
2018-11-01T09:24:05.524Z,999.98
2018-11-01T09:25:05.533Z,999.96
2018-11-01T09:26:05.523Z,999.91
2018-11-01T09:27:05.707Z,999.92
2018-11-01T09:28:05.548Z,999.96
2018-11-01T09:29:05.492Z,999.89
2018-11-01T09:30:05.487Z,999.83
2018-11-01T09:31:05.477Z,999.74
2018-11-01T09:32:05.466Z,999.88
2018-11-01T09:33:05.468Z,1000.03
2018-11-01T09:34:05.457Z,1000.17
2018-11-01T09:35:05.455Z,1000.21
2018-11-01T09:36:05.453Z,1000.22
2018-11-01T09:37:05.430Z,1000.30
2018-11-01T09:38:05.427Z,1000.42
2018-11-01T09:39:05.429Z,1000.46
2018-11-01T09:40:05.416Z,1000.52
2018-11-01T09:41:05.400Z,1000.46
2018-11-01T09:42:05.395Z,1000.46
2018-11-01T09:43:05.384Z,1000.40
2018-11-01T09:44:05.384Z,1000.31
2018-11-01T09:45:05.366Z,1000.28
2018-11-01T09:46:05.470Z,1000.31
2018-11-01T09:47:05.761Z,1000.35
2018-11-01T09:48:05.352Z,1000.38
2018-11-01T09:49:05.357Z,1000.38
2018-11-01T09:50:05.329Z,1000.39
2018-11-01T09:51:05.329Z,1000.34
2018-11-01T09:52:05.334Z,1000.27
2018-11-01T09:53:05.313Z,1000.21
2018-11-01T09:54:05.321Z,1000.14
2018-11-01T09:55:05.292Z,1000.13
2018-11-01T09:56:05.329Z,1000.08
2018-11-01T09:57:05.278Z,1000.07
2018-11-01T09:58:05.272Z,1000.02
2018-11-01T09:59:05.261Z,1000.06
2018-11-01T10:00:05.262Z,1000.08
2018-11-01T10:01:05.350Z,1000.05
2018-11-01T10:02:05.259Z,1000.04
2018-11-01T10:03:05.279Z,999.99
2018-11-01T10:04:05.229Z,999.91
2018-11-01T10:05:05.248Z,999.89
2018-11-01T10:06:05.333Z,999.87
2018-11-01T10:07:05.291Z,999.90
2018-11-01T10:08:05.240Z,999.90
2018-11-01T10:09:05.206Z,999.89
2018-11-01T10:10:05.179Z,999.86
2018-11-01T10:11:05.237Z,999.86
2018-11-01T10:12:05.161Z,999.84
2018-11-01T10:13:05.203Z,999.88
2018-11-01T10:14:05.158Z,999.85
2018-11-01T10:15:05.245Z,999.82
2018-11-01T10:16:05.180Z,999.75
2018-11-01T10:17:05.367Z,999.74
2018-11-01T10:18:05.482Z,999.70
2018-11-01T10:19:05.129Z,999.72
2018-11-01T10:20:05.109Z,999.74
2018-11-01T10:21:05.144Z,999.74
2018-11-01T10:22:05.216Z,999.67
2018-11-01T10:23:05.153Z,999.55
2018-11-01T10:24:05.127Z,999.48
2018-11-01T10:25:05.096Z,999.44
2018-11-01T10:26:05.071Z,999.38
2018-11-01T10:27:05.326Z,999.47
2018-11-01T10:28:05.087Z,999.49
2018-11-01T10:29:05.058Z,999.58
2018-11-01T10:30:05.045Z,999.63
2018-11-01T10:32:26.483Z,999.62
2018-11-01T10:33:26.333Z,999.59
2018-11-01T10:34:26.140Z,999.55
2018-11-01T10:35:26.559Z,999.57
2018-11-01T10:36:26.093Z,999.61
2018-11-01T10:37:26.096Z,999.62
2018-11-01T10:38:26.096Z,999.62
2018-11-01T10:39:26.059Z,999.65
2018-11-01T10:40:26.049Z,999.60
2018-11-01T10:41:26.064Z,999.58
2018-11-01T10:42:26.065Z,999.49
2018-11-01T10:43:26.028Z,999.38
2018-11-01T10:44:26.032Z,999.31
2018-11-01T10:45:26.016Z,999.23
2018-11-01T10:46:26.030Z,999.14
2018-11-01T10:47:26.095Z,999.12
2018-11-01T10:48:26.076Z,999.14
2018-11-01T10:49:26.013Z,999.14
2018-11-01T10:50:25.991Z,999.14
2018-11-01T10:51:25.996Z,999.15
2018-11-01T10:52:26.146Z,999.15
2018-11-01T10:53:25.991Z,999.20
2018-11-01T10:54:26.040Z,999.17
2018-11-01T10:55:25.953Z,999.19
2018-11-01T10:56:25.943Z,999.23
2018-11-01T10:57:25.971Z,999.27
2018-11-01T10:58:25.975Z,999.30
2018-11-01T10:59:25.972Z,999.37
2018-11-01T11:00:26.073Z,999.39
2018-11-01T11:01:25.926Z,999.41
2018-11-01T11:02:25.951Z,999.43
2018-11-01T11:03:25.919Z,999.41
2018-11-01T11:04:25.891Z,999.43
2018-11-01T11:05:25.925Z,999.45
2018-11-01T11:06:25.921Z,999.46
2018-11-01T11:07:25.900Z,999.50
2018-11-01T11:08:25.910Z,999.53
2018-11-01T11:09:25.887Z,999.55
2018-11-01T11:10:25.856Z,999.55
2018-11-01T11:11:25.882Z,999.59
2018-11-01T11:12:25.912Z,999.61
2018-11-01T11:13:25.854Z,999.61
2018-11-01T11:14:25.889Z,999.60
2018-11-01T11:15:25.873Z,999.61
2018-11-01T11:16:25.842Z,999.59
2018-11-01T11:17:25.858Z,999.59
2018-11-01T11:18:25.851Z,999.57
2018-11-01T11:19:25.933Z,999.55
2018-11-01T11:20:25.913Z,999.55
2018-11-01T11:21:25.817Z,999.57
2018-11-01T11:22:25.784Z,999.60
2018-11-01T11:23:25.811Z,999.57
2018-11-01T11:24:25.793Z,999.54
2018-11-01T11:25:25.827Z,999.55
2018-11-01T11:26:25.785Z,999.52
2018-11-01T11:27:25.802Z,999.59
2018-11-01T11:28:25.801Z,999.64
2018-11-01T11:29:25.749Z,999.66
2018-11-01T11:30:25.984Z,999.66
2018-11-01T11:31:25.770Z,999.63
2018-11-01T11:32:25.721Z,999.56
2018-11-01T11:33:25.742Z,999.49
2018-11-01T11:34:25.715Z,999.40
2018-11-01T11:35:25.757Z,999.33
2018-11-01T11:36:25.719Z,999.27
2018-11-01T11:37:25.702Z,999.26
2018-11-01T11:38:25.718Z,999.21
2018-11-01T11:39:25.714Z,999.23
2018-11-01T11:40:25.699Z,999.38
2018-11-01T11:41:25.669Z,999.49
2018-11-01T11:42:25.677Z,999.59
2018-11-01T11:43:25.685Z,999.73
2018-11-01T11:44:25.680Z,999.74
2018-11-01T11:45:25.663Z,999.79
2018-11-01T11:46:25.651Z,999.81
2018-11-01T11:47:25.635Z,999.80
2018-11-01T11:48:25.627Z,999.85
2018-11-01T11:49:25.628Z,999.90
2018-11-01T11:50:25.611Z,999.89
2018-11-01T11:51:25.662Z,999.91
2018-11-01T11:52:25.620Z,999.87
2018-11-01T11:53:25.610Z,999.87
2018-11-01T11:54:25.620Z,999.86
2018-11-01T11:55:25.605Z,999.89
2018-11-01T11:56:25.624Z,999.91
2018-11-01T11:57:25.689Z,999.89
2018-11-01T11:58:25.590Z,999.96
2018-11-01T11:59:25.566Z,999.99
2018-11-01T12:00:25.581Z,1000.00
2018-11-01T12:01:25.584Z,1000.02
2018-11-01T12:02:25.657Z,1000.01
2018-11-01T12:03:25.543Z,999.97
2018-11-01T12:04:25.535Z,1000.02
2018-11-01T12:05:25.625Z,1000.03
2018-11-01T12:06:25.627Z,1000.03
2018-11-01T12:07:25.556Z,1000.06
2018-11-01T12:08:25.525Z,1000.07
2018-11-01T12:09:25.509Z,1000.05
2018-11-01T12:10:25.535Z,1000.06
2018-11-01T12:11:25.519Z,1000.10
2018-11-01T12:12:25.504Z,1000.14
2018-11-01T12:13:25.491Z,1000.15
2018-11-01T12:14:25.474Z,1000.14
2018-11-01T12:15:25.475Z,1000.13
2018-11-01T12:16:25.484Z,1000.14
2018-11-01T12:17:25.461Z,1000.20
2018-11-01T12:18:25.483Z,1000.16
2018-11-01T12:19:25.461Z,1000.16
2018-11-01T12:20:25.449Z,1000.18
2018-11-01T12:21:25.470Z,1000.24
2018-11-01T12:22:25.550Z,1000.23
2018-11-01T12:23:25.429Z,1000.27
2018-11-01T12:24:25.422Z,1000.26
2018-11-01T12:25:25.419Z,1000.24
2018-11-01T12:26:25.413Z,1000.31
2018-11-01T12:27:25.407Z,1000.35
2018-11-01T12:28:25.457Z,1000.32
2018-11-01T12:29:25.411Z,1000.38
2018-11-01T12:30:25.394Z,1000.38
2018-11-01T12:31:25.403Z,1000.40
2018-11-01T12:32:25.376Z,1000.27
2018-11-01T12:33:25.382Z,1000.31
2018-11-01T12:34:25.386Z,1000.27
2018-11-01T12:35:25.424Z,1000.19
2018-11-01T12:36:25.361Z,1000.25
2018-11-01T12:37:25.360Z,1000.23
2018-11-01T12:38:25.351Z,1000.24
2018-11-01T12:39:25.363Z,1000.20
2018-11-01T12:40:25.335Z,1000.20
2018-11-01T12:41:25.411Z,1000.17
2018-11-01T12:42:25.341Z,1000.23
2018-11-01T12:43:25.329Z,1000.21
2018-11-01T12:44:25.311Z,1000.27
2018-11-01T12:45:25.348Z,1000.21
2018-11-01T12:46:25.360Z,1000.20
2018-11-01T12:47:25.402Z,1000.18
2018-11-01T12:48:25.350Z,1000.11
2018-11-01T12:49:25.342Z,1000.16
2018-11-01T12:50:25.461Z,1000.19
2018-11-01T12:51:25.371Z,1000.17
2018-11-01T12:52:25.292Z,1000.23
2018-11-01T12:53:25.296Z,1000.24
2018-11-01T12:54:25.269Z,1000.18
2018-11-01T12:55:25.292Z,1000.18
2018-11-01T12:56:25.559Z,1000.18
2018-11-01T12:57:25.374Z,1000.20
2018-11-01T12:58:25.250Z,1000.16
2018-11-01T12:59:25.275Z,1000.22
2018-11-01T13:00:25.259Z,1000.22
2018-11-01T13:01:25.505Z,1000.20
2018-11-01T13:02:34.738Z,1000.28
2018-11-01T13:04:19.051Z,1000.21
2018-11-01T13:05:18.807Z,1000.19
2018-11-01T13:06:18.896Z,1000.17
2018-11-01T13:07:18.660Z,1000.19
2018-11-01T13:08:19.016Z,1000.21
2018-11-01T13:09:18.734Z,1000.14
2018-11-01T13:10:18.619Z,1000.15
2018-11-01T13:11:18.625Z,1000.06
2018-11-01T13:12:18.651Z,1000.04
2018-11-01T13:13:18.606Z,999.98
2018-11-01T13:14:18.622Z,1000.00
2018-11-01T13:15:18.612Z,999.96
2018-11-01T13:16:18.593Z,1000.00
2018-11-01T13:17:18.648Z,1000.01
2018-11-01T13:18:18.618Z,1000.05
2018-11-01T13:19:18.596Z,1000.08
2018-11-01T13:20:18.605Z,1000.07
2018-11-01T13:21:18.569Z,1000.08
2018-11-01T13:22:18.580Z,1000.10
2018-11-01T13:23:18.579Z,1000.08
2018-11-01T13:24:18.576Z,1000.01
2018-11-01T13:25:18.553Z,1000.04
2018-11-01T13:26:18.555Z,1000.02
2018-11-01T13:27:18.578Z,1000.05
2018-11-01T13:28:18.566Z,1000.00
2018-11-01T13:29:18.553Z,1000.00
2018-11-01T13:30:18.524Z,999.98
2018-11-01T13:31:18.533Z,1000.06
2018-11-01T13:32:18.514Z,1000.06
2018-11-01T13:33:18.503Z,1000.07
2018-11-01T13:34:18.494Z,1000.06
2018-11-01T13:35:18.547Z,1000.11
2018-11-01T13:36:18.544Z,1000.07
2018-11-01T13:37:18.500Z,1000.08
2018-11-01T13:38:18.481Z,1000.09
2018-11-01T13:39:18.492Z,1000.12
2018-11-01T13:40:18.806Z,1000.10
2018-11-01T13:41:18.660Z,1000.06
2018-11-01T13:42:18.462Z,1000.02
2018-11-01T13:43:18.452Z,1000.00
2018-11-01T13:44:18.494Z,999.93
2018-11-01T13:45:18.449Z,999.96
2018-11-01T13:46:19.088Z,999.97
2018-11-01T13:47:18.510Z,999.96
2018-11-01T13:48:18.650Z,999.92
2018-11-01T13:49:18.429Z,999.96
2018-11-01T13:50:18.423Z,999.97
2018-11-01T13:51:18.413Z,999.99
2018-11-01T13:52:18.431Z,1000.02
2018-11-01T13:53:18.408Z,1000.06
2018-11-01T13:54:18.413Z,1000.05
2018-11-01T13:55:18.405Z,1000.05
2018-11-01T13:56:18.440Z,1000.06
2018-11-01T13:57:18.424Z,1000.03
2018-11-01T13:58:18.416Z,999.99
2018-11-01T13:59:18.395Z,999.97
2018-11-01T14:00:18.412Z,999.91
2018-11-01T14:01:18.369Z,999.92
2018-11-01T14:02:18.372Z,999.87
2018-11-01T14:03:18.364Z,999.78
2018-11-01T14:04:18.353Z,999.81
2018-11-01T14:05:18.354Z,999.82
2018-11-01T14:06:18.547Z,999.79
2018-11-01T14:07:18.352Z,999.76
2018-11-01T14:08:18.345Z,999.77
2018-11-01T14:09:18.366Z,999.75
2018-11-01T14:10:18.409Z,999.72
2018-11-01T14:11:18.741Z,999.70
2018-11-01T14:12:18.402Z,999.71
2018-11-01T14:13:18.458Z,999.73
2018-11-01T14:14:18.707Z,999.78
2018-11-01T14:15:18.792Z,999.74
2018-11-01T14:16:18.325Z,999.79
2018-11-01T14:17:18.287Z,999.83
2018-11-01T14:18:18.347Z,999.81
2018-11-01T14:19:18.302Z,999.78
2018-11-01T14:20:18.285Z,999.79
2018-11-01T14:21:18.275Z,999.78
2018-11-01T14:22:18.274Z,999.80
2018-11-01T14:23:18.267Z,999.78
2018-11-01T14:24:18.286Z,999.77
2018-11-01T14:25:18.318Z,999.73
2018-11-01T14:26:18.251Z,999.69
2018-11-01T14:27:18.338Z,999.64
2018-11-01T14:28:18.239Z,999.63
2018-11-01T14:29:18.242Z,999.54
2018-11-01T14:30:18.234Z,999.58
2018-11-01T14:31:18.363Z,999.61
2018-11-01T14:32:18.236Z,999.62
2018-11-01T14:33:18.227Z,999.71
2018-11-01T14:34:18.222Z,999.81
2018-11-01T14:35:18.211Z,999.94
2018-11-01T14:36:18.209Z,1000.01
2018-11-01T14:37:18.318Z,1000.06
2018-11-01T14:38:18.205Z,1000.08
2018-11-01T14:39:18.204Z,1000.11
2018-11-01T14:40:18.252Z,1000.09
2018-11-01T14:41:18.273Z,1000.08
2018-11-01T14:42:18.293Z,1000.09
2018-11-01T14:43:18.181Z,1000.08
2018-11-01T14:44:18.184Z,1000.05
2018-11-01T14:45:18.169Z,1000.08
2018-11-01T14:46:18.165Z,1000.12
2018-11-01T14:47:18.169Z,1000.14
2018-11-01T14:48:18.179Z,1000.12
2018-11-01T14:49:18.173Z,1000.11
2018-11-01T14:50:18.179Z,1000.11
2018-11-01T14:51:27.460Z,1000.13
2018-11-01T14:53:12.195Z,1000.15
2018-11-01T14:54:12.705Z,1000.16
2018-11-01T14:55:12.285Z,1000.14
2018-11-01T14:56:12.743Z,1000.14
2018-11-01T14:57:13.108Z,1000.14
2018-11-01T14:58:12.703Z,1000.12
2018-11-01T14:59:12.683Z,1000.03
2018-11-01T15:00:11.497Z,999.95
2018-11-01T15:01:11.492Z,999.90
2018-11-01T15:02:11.507Z,999.86
2018-11-01T15:03:11.527Z,999.88
2018-11-01T15:04:11.490Z,999.90
2018-11-01T15:05:11.487Z,999.92
2018-11-01T15:06:11.478Z,1000.01
2018-11-01T15:07:11.473Z,1000.04
2018-11-01T15:08:11.471Z,1000.07
2018-11-01T15:09:11.484Z,1000.06
2018-11-01T15:10:11.454Z,1000.04
2018-11-01T15:11:11.469Z,999.99
2018-11-01T15:12:11.474Z,1000.02
2018-11-01T15:13:11.536Z,999.98
2018-11-01T15:14:11.445Z,999.97
2018-11-01T15:15:11.433Z,999.97
2018-11-01T15:16:11.434Z,999.96
2018-11-01T15:17:11.425Z,999.97
2018-11-01T15:18:11.425Z,999.97
2018-11-01T15:19:11.470Z,1000.02
2018-11-01T15:20:11.427Z,1000.02
2018-11-01T15:21:11.424Z,1000.09
2018-11-01T15:22:11.436Z,1000.04
2018-11-01T15:23:11.403Z,1000.04
2018-11-01T15:24:11.397Z,1000.03
2018-11-01T15:26:42.537Z,999.99
2018-11-01T15:27:41.099Z,999.94
2018-11-01T15:29:25.815Z,999.97
2018-11-01T15:30:33.511Z,999.93
2018-11-01T15:31:25.808Z,999.94
2018-11-01T15:32:25.795Z,999.92
2018-11-01T15:33:25.817Z,999.88
2018-11-01T15:34:25.775Z,999.83
2018-11-01T15:35:25.771Z,999.82
2018-11-01T15:36:25.776Z,999.78
2018-11-01T15:37:25.822Z,999.78
2018-11-01T15:38:25.771Z,999.78
2018-11-01T15:39:25.760Z,999.73
2018-11-01T15:40:25.762Z,999.74
2018-11-01T15:41:25.753Z,999.75
2018-11-01T15:42:25.733Z,999.76
2018-11-01T15:43:25.726Z,999.76
2018-11-01T15:44:25.729Z,999.79
2018-11-01T15:45:25.725Z,999.77